Mc Dowell, Kentucky
Current Conditions -  °F | °C
As of 1:35 PM on Sunday 21 Dec 2014 (Local Time) from KPBX Reporting Station
Clear Clear  
Wind Chill: 41°   Ceiling: Unl
Heat Index: 41°   Visibility: 10mi
Dew Point: 28°   Wind: 0mph
Humidity: 60%   Direction: NA
Pressure: 30.18"   Gusts: NA
Location:  37.4275°N, 82.7438°W
Report Text: KPBX 211835Z AUTO 00000KT 10SM CLR 05/M02 A3018 RMK AO2 T00511020
Loading
Personal Weather Stations






























Interactive Weather Map New forecast layout! Learn more

10-Day Weather Forecast

Advertisements
Track Severe Weather on mobile